Latest Coastal Weather Observations for Yanakie

IDV60701

Issued at 7:41 pm EDT Saturday 10 December 2016 (issued every 10 minutes, with the page automatically refreshed every 10 minutes)

About coastal observations | Map of coastal stations | Coastal observations for VIC | Marine services | Other Formats
Station Details ID: 085301 Name: YANAKIE Lat: -38.81 Lon: 146.19 Height: 13.3 m
Data from the previous 72 hours. | See also: Recent months at Yanakie
Date/Time
EDT
Temp
°C
Wind Pressure Rain since
9am
mm
Weather Cloud Vis
km
Sea
Height
m
Swell
Dir  Spd
kts
Gust
kts
hPa Trend Height
m
Period
s
Dir
10/07:30pm 14.3 W 11 14 1022.4 - 0.0 - - - - - - -
10/07:00pm 14.8 W 12 16 1022.1 - 0.0 - - - - - - -
10/06:30pm 15.3 W 11 15 1021.9 - 0.0 - - - - - - -
10/06:00pm 15.2 WSW 12 15 1021.8 - 0.0 - - - - - - -
10/05:30pm 15.4 WSW 13 17 1021.8 - 0.0 - - - - - - -
10/05:00pm 16.1 WSW 13 17 1022.1 - 0.0 - - - - - - -
10/04:30pm 16.0 WSW 14 19 1022.1 - 0.0 - - - - - - -
10/04:00pm 15.9 WSW 12 16 1022.1 - 0.0 - - - - - - -
10/03:30pm 16.0 WSW 13 19 1022.2 - 0.0 - - - - - - -
10/03:00pm 16.2 WSW 14 17 1022.5 - 0.0 - - - - - - -
10/02:30pm 16.8 WSW 13 18 1022.7 - 0.0 - - - - - - -
10/02:00pm 15.8 WSW 13 17 1023.0 - 0.0 - - - - - - -
10/01:30pm 15.8 W 13 17 1023.1 - 0.0 - - - - - - -
10/01:00pm 15.6 WSW 11 15 1023.1 - 0.0 - - - - - - -
10/12:30pm 15.6 W 11 15 1023.2 - 0.0 - - - - - - -
10/12:00pm 15.4 W 9 12 1023.2 - 0.0 - - - - - - -
10/11:30am 14.9 W 11 15 1023.2 - 0.0 - - - - - - -
10/11:00am 15.6 W 9 13 1023.2 - 0.0 - - - - - - -
10/10:30am 14.8 WSW 11 14 1023.3 - 0.0 - - - - - - -
10/10:00am 14.6 W 10 13 1023.3 - 0.0 - - - - - - -
10/09:30am 14.4 W 8 10 1023.3 - 0.0 - - - - - - -
10/09:00am 14.4 W 9 13 1023.2 - 0.0 - - - - - - -
10/08:30am 13.8 WNW 8 12 1023.0 - 0.0 - - - - - - -
10/08:00am 13.2 WNW 6 8 1022.7 - 0.0 - - - - - - -
10/07:30am 12.7 W 7 9 1022.3 - 0.0 - - - - - - -
10/07:00am 12.1 WNW 7 9 1022.0 - 0.0 - - - - - - -
10/06:30am 11.8 W 6 9 1021.5 - 0.0 - - - - - - -
10/06:00am 11.6 WNW 6 9 1021.1 - 0.0 - - - - - - -
10/05:30am 12.0 W 8 12 1020.9 - 0.0 - - - - - - -
10/05:00am 11.7 W 8 9 1020.7 - 0.0 - - - - - - -
10/04:30am 12.0 W 9 12 1020.6 - 0.0 - - - - - - -
10/04:00am 11.9 WSW 9 13 1020.5 - 0.0 - - - - - - -
10/03:30am 11.5 WSW 9 12 1020.5 - 0.0 - - - - - - -
10/03:00am 12.1 WSW 10 12 1020.4 - 0.0 - - - - - - -
10/02:30am 12.0 W 11 16 1020.5 - 0.0 - - - - - - -
10/02:00am 11.5 W 7 9 1020.6 - 0.0 - - - - - - -
10/01:30am 11.6 W 10 15 1020.8 - 0.0 - - - - - - -
10/01:00am 12.1 WSW 11 15 1021.0 - 0.0 - - - - - - -
10/12:30am 12.3 WSW 11 15 1021.2 - 0.0 - - - - - - -
10/12:00am 12.4 WSW 13 17 1021.3 - 0.0 - - - - - - -
 
Date/Time
EDT
Temp
°C
Wind Pressure Rain since
9am
mm
Weather Cloud Vis
km
Sea
Height
m
Swell
Dir  Spd
kts
Gust
kts
hPa Trend Height
m
Period
s
Dir
09/11:30pm 11.9 SW 15 20 1021.5 - 0.0 - - - - - - -
09/11:00pm 12.3 WSW 15 20 1021.2 - 0.0 - - - - - - -
09/10:30pm 12.3 SW 14 21 1021.0 - 0.0 - - - - - - -
09/10:00pm 11.6 SW 16 21 1020.9 - 0.0 - - - - - - -
09/09:30pm 12.4 WSW 12 16 1020.5 - 0.0 - - - - - - -
09/09:00pm 12.2 WSW 17 22 1020.3 - 0.0 - - - - - - -
09/08:30pm 12.5 SW 16 21 1019.8 - 0.0 - - - - - - -
09/08:00pm 12.8 WSW 17 23 1019.5 - 0.0 - - - - - - -
09/07:30pm 12.2 WSW 15 21 1019.2 - 0.0 - - - - - - -
09/07:00pm 12.8 SW 19 25 1018.9 - 0.0 - - - - - - -
09/06:46pm 12.9 WSW 17 27 1018.6 - 0.0 - - - - - - -
09/06:30pm 13.2 WSW 17 23 1018.2 - 0.0 - - - - - - -
09/06:00pm 13.5 WSW 19 26 1017.8 - 0.0 - - - - - - -
09/05:30pm 12.2 W 17 23 1017.8 - 0.0 - - - - - - -
09/05:00pm 13.5 SW 18 26 1017.5 - 0.0 - - - - - - -
09/04:30pm 14.7 WSW 20 26 1017.3 - 0.0 - - - - - - -
09/04:00pm 13.7 WSW 19 27 1017.3 - 0.0 - - - - - - -
09/03:30pm 14.6 W 19 26 1017.3 - 0.0 - - - - - - -
09/03:00pm 13.6 WSW 18 26 1016.8 - 0.0 - - - - - - -
09/02:30pm 15.6 WSW 20 27 1016.7 - 0.0 - - - - - - -
09/02:00pm 15.7 WSW 21 28 1016.4 - 0.0 - - - - - - -
09/01:30pm 14.6 WSW 22 30 1016.1 - 0.0 - - - - - - -
09/01:00pm 15.8 WSW 22 31 1015.7 - 0.0 - - - - - - -
09/12:31pm 15.9 WSW 21 31 1015.5 - 0.0 - - - - - - -
09/12:30pm 16.1 WSW 22 31 1015.5 - 0.0 - - - - - - -
09/12:02pm 15.5 WSW 20 30 1015.1 - 0.0 - - - - - - -
09/12:00pm 15.2 WSW 21 30 1015.1 - 0.0 - - - - - - -
09/11:54am 14.8 WSW 20 30 1015.1 - 0.0 - - - - - - -
09/11:30am 15.2 WSW 18 28 1014.8 - 0.0 - - - - - - -
09/11:00am 14.4 WSW 22 31 1014.4 - 0.0 - - - - - - -
09/10:30am 13.4 WSW 23 37 1014.0 - 0.0 - - - - - - -
09/10:14am 14.7 WSW 21 31 1013.6 - 0.0 - - - - - - -
09/10:00am 14.2 SW 20 30 1013.4 - 0.0 - - - - - - -
09/09:30am 12.0 SW 24 33 1013.1 - 0.0 - - - - - - -
09/09:25am 13.4 WSW 20 30 1012.9 - 0.0 - - - - - - -
09/09:00am 12.7 WSW 19 28 1012.6 - 8.6 - - - - - - -
09/08:30am 13.0 SW 21 34 1011.9 - 8.6 - - - - - - -
09/08:28am 12.9 SW 20 31 1011.7 - 8.6 - - - - - - -
09/08:00am 12.7 SW 21 29 1010.9 - 8.6 - - - - - - -
09/07:36am 12.2 SW 21 31 1010.4 - 8.6 - - - - - - -
09/07:30am 12.4 SW 22 31 1010.4 - 8.6 - - - - - - -
09/07:00am 12.1 SW 23 35 1009.8 - 8.6 - - - - - - -
09/06:30am 10.8 SW 22 35 1009.3 - 8.6 - - - - - - -
09/06:00am 10.6 WSW 20 31 1008.5 - 8.6 Rain - - - - - -
09/05:35am 10.9 WSW 21 31 1007.9 - 8.4 - - - - - - -
09/05:30am 10.8 WSW 24 32 1007.8 - 8.4 - - - - - - -
09/05:00am 11.5 WSW 21 31 1007.4 - 8.4 - - - - - - -
09/04:57am 11.6 WSW 21 31 1007.3 - 8.4 - - - - - - -
09/04:30am 11.7 WSW 22 30 1006.7 - 8.4 - - - - - - -
09/04:21am 11.3 WSW 21 31 1006.6 - 8.4 - - - - - - -
09/04:00am 11.5 WSW 25 34 1006.4 - 8.4 - - - - - - -
09/03:30am 12.1 WSW 24 36 1006.0 - 8.4 - - - - - - -
09/03:26am 11.9 WSW 21 32 1005.9 - 8.4 - - - - - - -
09/03:00am 11.1 WSW 20 29 1005.8 - 8.4 - - - - - - -
09/02:32am 11.9 WSW 24 34 1005.5 - 8.4 - - - - - - -
09/02:30am 12.0 WSW 25 34 1005.4 - 8.4 - - - - - - -
09/02:23am 12.1 WSW 24 34 1005.3 - 8.4 - - - - - - -
09/02:00am 12.3 WSW 24 31 1005.2 - 8.4 - - - - - - -
09/01:37am 12.1 WSW 22 32 1005.0 - 8.4 - - - - - - -
09/01:30am 12.3 WSW 23 30 1004.9 - 8.4 - - - - - - -
09/01:12am 12.3 WSW 20 30 1004.8 - 8.4 - - - - - - -
09/01:00am 12.3 WSW 20 27 1004.8 - 8.4 - - - - - - -
09/12:30am 12.8 WSW 21 31 1004.7 - 8.4 - - - - - - -
09/12:20am 12.7 WSW 19 29 1004.6 - 8.4 - - - - - - -
09/12:00am 12.7 W 22 30 1004.4 - 8.4 - - - - - - -
 
Date/Time
EDT
Temp
°C
Wind Pressure Rain since
9am
mm
Weather Cloud Vis
km
Sea
Height
m
Swell
Dir  Spd
kts
Gust
kts
hPa Trend Height
m
Period
s
Dir
08/11:31pm 12.9 WSW 19 29 1004.3 - 8.4 - - - - - - -
08/11:30pm 13.0 WSW 20 30 1004.3 - 8.4 - - - - - - -
08/11:19pm 13.1 WSW 20 30 1004.1 - 8.4 - - - - - - -
08/11:00pm 13.4 W 22 31 1003.6 - 8.4 - - - - - - -
08/10:42pm 13.4 W 21 31 1003.4 - 8.4 - - - - - - -
08/10:30pm 13.7 W 22 28 1003.4 - 8.4 - - - - - - -
08/10:17pm 13.5 W 20 31 1003.2 - 8.4 - - - - - - -
08/10:00pm 13.6 WSW 23 32 1002.8 - 8.4 - - - - - - -
08/09:40pm 13.3 WSW 20 30 1002.3 - 8.4 - - - - - - -
08/09:30pm 13.3 WSW 21 29 1002.1 - 8.4 - - - - - - -
08/09:26pm 13.3 WSW 21 31 1002.1 - 8.4 - - - - - - -
08/09:00pm 13.6 WSW 23 33 1001.6 - 8.4 - - - - - - -
08/08:30pm 13.6 W 21 28 1001.3 - 8.4 - - - - - - -
08/08:15pm 13.7 W 19 30 1000.9 - 8.4 - - - - - - -
08/08:00pm 13.6 W 19 26 1000.6 - 8.4 - - - - - - -
08/07:30pm 14.7 W 24 33 999.8 - 8.4 - - - - - - -
08/07:00pm 15.1 W 23 35 999.0 - 8.4 - - - - - - -
08/06:36pm 16.4 W 24 38 998.4 - 8.4 - - - - - - -
08/06:30pm 16.7 W 25 35 998.3 - 8.4 - - - - - - -
08/06:12pm 17.1 W 22 32 998.1 - 8.4 - - - - - - -
08/06:00pm 16.5 W 24 32 997.7 - 8.4 - - - - - - -
08/05:46pm 17.7 W 24 35 997.3 - 8.4 - - - - - - -
08/05:30pm 17.9 W 27 34 996.9 - 8.4 - - - - - - -
08/05:09pm 18.1 W 26 37 996.6 - 8.4 - - - - - - -
08/05:00pm 18.1 W 25 35 996.6 - 8.4 - - - - - - -
08/04:42pm 18.4 W 26 37 996.3 - 8.4 - - - - - - -
08/04:30pm 18.8 W 23 30 996.1 - 8.4 - - - - - - -
08/04:20pm 18.5 W 24 34 996.2 - 8.4 - - - - - - -
08/04:00pm 19.1 W 25 33 996.1 - 8.4 - - - - - - -
08/03:30pm 20.1 W 26 38 995.7 - 8.4 - - - - - - -
08/03:00pm 20.0 WNW 25 35 995.5 - 8.4 - - - - - - -
08/02:59pm 20.0 WNW 25 35 995.6 - 8.4 - - - - - - -
08/02:30pm 18.9 WNW 21 30 996.0 - 8.4 - - - - - - -
08/02:06pm 17.6 WNW 18 29 996.2 - 8.4 - - - - - - -
08/02:00pm 17.6 WNW 19 27 996.2 - 8.4 - - - - - - -
08/01:30pm 16.3 WNW 17 23 996.1 - 8.4 - - - - - - -
08/01:00pm 15.0 WNW 21 27 996.3 - 8.2 - - - - - - -
08/12:30pm 14.8 WNW 15 21 995.9 - 8.0 - - - - - - -
08/12:07pm 15.2 WNW 21 35 996.0 - 8.0 - - - - - - -
08/12:03pm 16.1 NW 17 35 995.7 - 8.0 - - - - - - -
08/12:01pm 17.8 NW 15 35 995.5 - 8.0 - - - - - - -
08/12:00pm 18.1 NW 14 21 995.1 - 8.0 Recent precip. - - - - - -
08/11:30am 18.7 NNW 14 23 994.5 - 8.0 - - - - - - -
08/11:00am 17.5 NNW 13 20 995.1 - 6.6 - - - - - - -
08/10:30am 17.3 N 11 17 995.0 - 5.6 - - - - - - -
08/10:16am 17.0 N 10 21 995.8 - 4.8 - - - - - - -
08/10:00am 16.6 NNE 4 8 996.5 - 3.8 - - - - - - -
08/09:30am 16.2 N 7 11 996.9 - 2.6 - - - - - - -
08/09:00am 17.0 NNE 2 2 997.4 - 1.8 Rain - - - - - -
08/08:30am 17.6 ENE 4 5 997.4 - 0.8 - - - - - - -
08/08:00am 16.9 NE 4 6 997.6 - 0.4 - - - - - - -
08/07:30am 16.5 NE 4 7 998.3 - 0.4 - - - - - - -
08/07:00am 16.9 NE 7 11 998.9 - 0.4 - - - - - - -
08/06:30am 16.7 ENE 7 11 999.0 - 0.0 - - - - - - -
08/06:00am 16.9 E 9 14 998.4 - 0.0 - - - - - - -
08/05:30am 16.8 ENE 11 15 998.1 - 0.0 - - - - - - -
08/05:00am 16.6 ENE 10 15 998.1 - 0.0 - - - - - - -
08/04:30am 16.4 E 9 14 998.7 - 0.0 - - - - - - -
08/04:00am 15.8 E 9 15 999.6 - 0.0 - - - - - - -
08/03:30am 15.4 E 10 15 1000.5 - 0.0 - - - - - - -
08/03:00am 15.5 E 10 17 1001.1 - 0.0 - - - - - - -
08/02:30am 15.4 E 9 17 1002.2 - 0.0 - - - - - - -
08/02:00am 15.2 E 10 15 1002.8 - 0.0 - - - - - - -
08/01:30am 14.9 E 10 19 1003.9 - 0.0 - - - - - - -
08/01:00am 15.3 ENE 12 17 1004.9 - 0.0 - - - - - - -
08/12:30am 15.3 ENE 14 19 1005.5 - 0.0 - - - - - - -
08/12:00am 15.2 ENE 14 21 1006.2 - 0.0 - - - - - - -
 
Date/Time
EDT
Temp
°C
Wind Pressure Rain since
9am
mm
Weather Cloud Vis
km
Sea
Height
m
Swell
Dir  Spd
kts
Gust
kts
hPa Trend Height
m
Period
s
Dir
07/11:30pm 15.2 ENE 17 24 1006.8 - 0.0 - - - - - - -
07/11:00pm 15.2 ENE 16 22 1007.8 - 0.0 - - - - - - -
07/10:30pm 15.3 ENE 16 22 1008.4 - 0.0 - - - - - - -
07/10:00pm 15.5 ENE 14 20 1008.8 - 0.0 - - - - - - -
07/09:30pm 15.5 ENE 13 20 1009.3 - 0.0 - - - - - - -
07/09:00pm 15.6 ENE 14 20 1009.3 - 0.0 - - - - - - -
07/08:30pm 15.3 ENE 12 19 1009.7 - 0.0 - - - - - - -
07/08:00pm 15.6 ENE 12 19 1009.9 - 0.0 - - - - - - -

Other Formats:

Comma delimited format used in spreadsheet applications
http://www.bom.gov.au/fwo/IDV60701/IDV60701.94911.axf

JavaScript Object Notation format (JSON) in row-major order
http://www.bom.gov.au/fwo/IDV60701/IDV60701.94911.json